Guadalupe, Arizona
Current Conditions -  °F | °C
As of 2:51 AM on Thursday 27 Nov 2014 (Local Time) from KPHX Reporting Station
Clear Clear  
Wind Chill: 51°   Ceiling: Unl
Heat Index: 51°   Visibility: 10mi
Dew Point: 28°   Wind: 6mph
Humidity: 41%   Direction: 90°E
Pressure: 30.18"   Gusts: NA
Location:  33.364°N, 111.931°W
Report Text: KPHX 270951Z 09005KT 10SM CLR 11/M02 A3018 RMK AO2 SLP213 T01061022
Loading
Personal Weather Stations






























Interactive Weather Map New forecast layout! Learn more

10-Day Weather Forecast

Advertisements
Track Severe Weather on mobile